Αναφορές METAR από Ελληνικά Αεροδρόμια

Σε αυτή τη σελίδα, μπορείτε να παρακολουθείτε τις αναφορές METAR που προέρχονται από τα κυριότερα αεροδρόμια της Ελλάδας. Το περιεχόμενο αποκωδικοποιείται, οπτικοποιείται και γίνεται κατανοητό από τον καθένα με τη χρήση του όμορφου δίγλωσσου γραφικού περιβάλλοντος του meteothes.gr!

Η αρχική κωδικοποιημένη αναφορά, συμπεριλαμβάνεται επίσης στο κάτω μέρος. Σε όποια καθεστερεί η ενημέρωση, το προειδοποιητικό μήνυμα "Μη ενημερωμένο METAR!" εμφανίζεται στο πάνω μέρος της με κόκκινα γράμματα.

Εχουν προστεθεί επίσης δύο αεροδρόμια από γειτονικές χώρες, την Οχρίδα(ΠΓΔΜ) και την Σόφια(Βουλγαρία) για να ελέγχουμε την εξέλιξη των ψυχρών εισβολών από τα Βόρεια!

LGTS - Thessaloniki/Makedonia-Elev 7m
Απόσταση από meteothes.gr: Ν 13km
Ενημερώθηκε: 19/11/2017 17:20
Διάσπαρτα Nέφη
Διάσπαρτα Nέφη
 Ανεμος από άπνοια
Ανεμος: άπνοια
Θερμοκρασία: 14°C
Σημ. Δρόσου: 7°C
Υγρασία: 63%
Βαρόμετρο: 1008 hPa
Νέφωση: Διάσπαρτα Nέφη
Ορατότητα: 10 km
Λεπτομέρειες Νεφών: Διάσπαρτα Nέφη 305 m
2017/11/19 15:20 LGTS 191520Z 00000KT 9999 FEW010 14/07 Q1008 NOSIG
LGAV - Athens/Elef. Venizelos-Elev 94m
Απόσταση από meteothes.gr: ΝΝΑ 312km
Ενημερώθηκε: 19/11/2017 17:20
Διάσπαρτα Nέφη
Διάσπαρτα Nέφη
 Ανεμος από μεταβλητός
Ανεμος: μεταβλητός 4 km/h
Θερμοκρασία: 14°C
Σημ. Δρόσου: 12°C
Υγρασία: 88%
Βαρόμετρο: 1010 hPa
Νέφωση: Διάσπαρτα Nέφη
Ορατότητα: 10 km
Λεπτομέρειες Νεφών: Διάσπαρτα Nέφη 914 m
2017/11/19 15:20 LGAV 191520Z VRB02KT 9999 FEW030 14/12 Q1010 NOSIG
 
LGAL - Alexandroupolis-Elev 3m
Απόσταση από meteothes.gr: Α 251km
Ενημερώθηκε: 19/11/2017 17:20
Ασθενής βροχή, κυρίως νεφελώδης
Ασθενής βροχή, κυρίως νεφελώδης
 Ανεμος από Α
Ανεμος: Α 7 km/h
Θερμοκρασία: 12°C
Σημ. Δρόσου: 10°C
Υγρασία: 88%
Βαρόμετρο: 1009 hPa
Συνθήκες: Ασθενής βροχή
Νέφωση: κυρίως νεφελώδης
Ορατότητα: 10 km
Λεπτομέρειες Νεφών: Διάσπαρτα Nέφη 427 m
κυρίως νεφελώδης 610 m
2017/11/19 15:20 LGAL 191520Z 10004KT 9999 -RA FEW014 BKN020 12/10 Q1009
LGKV - Kavala/Crysoupolis-Elev 5m
Απόσταση από meteothes.gr: ΑΒΑ 144km
Ενημερώθηκε: 19/11/2017 17:20
Διάσπαρτα Nέφη
Διάσπαρτα Nέφη
 Ανεμος από άπνοια
Ανεμος: άπνοια
Θερμοκρασία: 14°C
Σημ. Δρόσου: 11°C
Υγρασία: 82%
Βαρόμετρο: 1008 hPa
Νέφωση: Διάσπαρτα Nέφη
Ορατότητα: 10 km
Λεπτομέρειες Νεφών: Διάσπαρτα Nέφη 610 m
2017/11/19 15:20 LGKV 191520Z 00000KT 9999 FEW020 14/11 Q1008
 
LGSK - Skiathos Island-Elev 15m
Απόσταση από meteothes.gr: ΝΝΑ 168km
Ενημερώθηκε: 19/11/2017 16:50
Μερικώς νεφελώδης
Μερικώς νεφελώδης
 Ανεμος από άπνοια
Ανεμος: άπνοια
Θερμοκρασία: 15°C
Σημ. Δρόσου: 11°C
Υγρασία: 77%
Βαρόμετρο: 1009 hPa
Νέφωση: Μερικώς νεφελώδης
Ορατότητα: 10 km
Λεπτομέρειες Νεφών: Μερικώς νεφελώδης 762 m
2017/11/19 14:50 LGSK 191450Z 00000KT 9999 SCT025 15/11 Q1009
LGLM - Limnos Island-Elev 5m
Απόσταση από meteothes.gr: ΑΝΑ 210km
Ενημερώθηκε: 19/11/2017 17:20
Ασθενής βροχή, κυρίως νεφελώδης
Ασθενής βροχή, κυρίως νεφελώδης
 Ανεμος από Β
Ανεμος: Β 9 km/h
Θερμοκρασία: 13°C
Σημ. Δρόσου: 12°C
Υγρασία: 94%
Βαρόμετρο: 1008 hPa
Συνθήκες: Ασθενής βροχή
Νέφωση: κυρίως νεφελώδης
Ορατότητα: 10 km
Λεπτομέρειες Νεφών: Μερικώς νεφελώδης 305 m
Διάσπαρτα Nέφη 549 m
κυρίως νεφελώδης 762 m
2017/11/19 15:20 LGLM 191520Z 01005KT 9999 -RA SCT010 FEW018TCU BKN025 13/12 Q1008
 
LGMT - Mitilini Island-Elev 17m
Απόσταση από meteothes.gr: ΑΝΑ 358km
Ενημερώθηκε: 19/11/2017 17:20
Ασθενής βροχή, Μερικώς νεφελώδης
Ασθενής βροχή, Μερικώς νεφελώδης
 Ανεμος από Ν
Ανεμος: Ν 15 km/h
Θερμοκρασία: 16°C
Σημ. Δρόσου: 14°C
Υγρασία: 88%
Βαρόμετρο: 1008 hPa
Συνθήκες: Ασθενής βροχή
Νέφωση: Μερικώς νεφελώδης
Ορατότητα: 10 km
Λεπτομέρειες Νεφών: Διάσπαρτα Nέφη 549 m
Μερικώς νεφελώδης 610 m
2017/11/19 15:20 LGMT 191520Z 18008KT 130V220 9999 -RA FEW018TCU SCT020 16/14 Q1008
LGSY - Skiros Island-Elev 15m
Απόσταση από meteothes.gr: ΝΑ 227km
Ενημερώθηκε: 19/11/2017 16:50
Μερικώς νεφελώδης
Μερικώς νεφελώδης
 Ανεμος από ΒΔ
Ανεμος: ΒΔ 9 km/h
Θερμοκρασία: 14°C
Σημ. Δρόσου: 12°C
Υγρασία: 88%
Βαρόμετρο: 1008 hPa
Νέφωση: Μερικώς νεφελώδης
Ορατότητα: 10 km
Λεπτομέρειες Νεφών: Διάσπαρτα Nέφη 305 m
Διάσπαρτα Nέφη 549 m
Μερικώς νεφελώδης 762 m
2017/11/19 14:50 LGSY 191450Z 31005KT 9999 FEW010 FEW018TCU SCT025 14/12 Q1008 RMK BKN080 BLU
 
LGKZ - Kozani-Elev 628m
Απόσταση από meteothes.gr: ΔΝΔ 102km
Ενημερώθηκε: 19/11/2017 16:50
κυρίως νεφελώδης
κυρίως νεφελώδης
 Ανεμος από άπνοια
Ανεμος: άπνοια
Θερμοκρασία: 11°C
Σημ. Δρόσου: 8°C
Υγρασία: 82%
Βαρόμετρο: 1009 hPa
Νέφωση: κυρίως νεφελώδης
Ορατότητα: 10 km
Λεπτομέρειες Νεφών: Διάσπαρτα Nέφη 610 m
Μερικώς νεφελώδης 762 m
κυρίως νεφελώδης 2134 m
2017/11/19 14:50 LGKZ 191450Z 00000KT 9999 FEW020TCU SCT025 BKN070 11/08 Q1009 RETS
LGIO - Ioannina-Elev 476m
Απόσταση από meteothes.gr: ΔΝΔ 209km
Ενημερώθηκε: 19/11/2017 17:20
Μερικώς νεφελώδης
Μερικώς νεφελώδης
 Ανεμος από μεταβλητός
Ανεμος: μεταβλητός 0 km/h
Θερμοκρασία: 11°C
Σημ. Δρόσου: 9°C
Υγρασία: 88%
Βαρόμετρο: 1010 hPa
Νέφωση: Μερικώς νεφελώδης
Ορατότητα: 10 km
Λεπτομέρειες Νεφών: Μερικώς νεφελώδης 610 m
2017/11/19 15:20 LGIO 191520Z /////KT 9999 SCT020 11/09 Q1010
 
LGZA - Zakinthos-Elev 3m
Απόσταση από meteothes.gr: ΝΝΔ 367km
Ενημερώθηκε: 19/11/2017 16:50
Μερικώς νεφελώδης
Μερικώς νεφελώδης
 Ανεμος από ΔΒΔ
Ανεμος: ΔΒΔ 9 km/h
Θερμοκρασία: 18°C
Σημ. Δρόσου: 11°C
Υγρασία: 64%
Βαρόμετρο: 1011 hPa
Νέφωση: Μερικώς νεφελώδης
Ορατότητα: 10 km
Λεπτομέρειες Νεφών: Διάσπαρτα Nέφη 549 m
Μερικώς νεφελώδης 610 m
2017/11/19 14:50 LGZA 191450Z 30005KT 9999 FEW018TCU SCT020 18/11 Q1011
LGKR - Corfu Island-Elev 2m
Απόσταση από meteothes.gr: ΔΝΔ 282km
Ενημερώθηκε: 19/11/2017 17:20
Μερικώς νεφελώδης
Μερικώς νεφελώδης
 Ανεμος από ΔΒΔ
Ανεμος: ΔΒΔ 15 km/h
Θερμοκρασία: 15°C
Σημ. Δρόσου: 10°C
Υγρασία: 72%
Βαρόμετρο: 1010 hPa
Νέφωση: Μερικώς νεφελώδης
Ορατότητα: 10 km
Λεπτομέρειες Νεφών: Διάσπαρτα Nέφη 549 m
Μερικώς νεφελώδης 762 m
2017/11/19 15:20 LGKR 191520Z 30008KT 9999 FEW018 SCT025 15/10 Q1010 NOSIG
 
LGSO - Syros Island-Elev 72m
Απόσταση από meteothes.gr: ΝΝΑ 397km
Ενημερώθηκε: 19/11/2017 17:20

 Ανεμος από ΔΒΔ
Ανεμος: ΔΒΔ 26 km/h
Θερμοκρασία: 16°C
Σημ. Δρόσου: 12°C
Υγρασία: 77%
Βαρόμετρο: 1009 hPa
2017/11/19 15:20 LGSO 191520Z AUTO 29014KT //// // ////// 16/12 Q1009 RE//
LGMK - Mikonos Island-Elev 123m
Απόσταση από meteothes.gr: ΝΝΑ 412km
Ενημερώθηκε: 19/11/2017 13:50
ΜΗ Ενημερωμένο METAR!
Μερικώς νεφελώδης
Μερικώς νεφελώδης
 Ανεμος από ΝΝΔ
Ανεμος: ΝΝΔ 11 km/h
Θερμοκρασία: 19°C
Σημ. Δρόσου: 14°C
Υγρασία: 73%
Βαρόμετρο: 1009 hPa
Νέφωση: Μερικώς νεφελώδης
Ορατότητα: 10 km
Λεπτομέρειες Νεφών: Μερικώς νεφελώδης 549 m
2017/11/19 11:50 LGMK 191150Z 20006KT 9999 SCT018 19/14 Q1009
 
LGSR - Santorini Island-Elev 40m
Απόσταση από meteothes.gr: ΝΝΑ 520km
Ενημερώθηκε: 19/11/2017 17:20
Διάσπαρτα Nέφη
Διάσπαρτα Nέφη
 Ανεμος από ΔΝΔ
Ανεμος: ΔΝΔ 28 km/h
Θερμοκρασία: 18°C
Σημ. Δρόσου: 12°C
Υγρασία: 68%
Βαρόμετρο: 1010 hPa
Νέφωση: Διάσπαρτα Nέφη
Ορατότητα: 10 km
Λεπτομέρειες Νεφών: Διάσπαρτα Nέφη 762 m
2017/11/19 15:20 LGSR 191520Z 24015KT 9999 FEW025 18/12 Q1010
LGKL - Kalamata-Elev 8m
Απόσταση από meteothes.gr: Ν 405km
Ενημερώθηκε: 19/11/2017 17:20
Μερικώς νεφελώδης
Μερικώς νεφελώδης
 Ανεμος από άπνοια
Ανεμος: άπνοια
Θερμοκρασία: 16°C
Σημ. Δρόσου: 12°C
Υγρασία: 77%
Βαρόμετρο: 1011 hPa
Νέφωση: Μερικώς νεφελώδης
Ορατότητα: 10 km
Λεπτομέρειες Νεφών: Διάσπαρτα Nέφη 610 m
Μερικώς νεφελώδης 762 m
2017/11/19 15:20 LGKL 191520Z 00000KT 9999 FEW020TCU SCT025 16/12 Q1011
 
LGIR - Iraklion/Crete-Elev 5m
Απόσταση από meteothes.gr: ΝΝΑ 622km
Ενημερώθηκε: 19/11/2017 17:20
Μερικώς νεφελώδης
Μερικώς νεφελώδης
 Ανεμος από άπνοια
Ανεμος: άπνοια
Θερμοκρασία: 18°C
Σημ. Δρόσου: 13°C
Υγρασία: 73%
Βαρόμετρο: 1011 hPa
Νέφωση: Μερικώς νεφελώδης
Ορατότητα: 10 km
Λεπτομέρειες Νεφών: Διάσπαρτα Nέφη 610 m
Μερικώς νεφελώδης 914 m
2017/11/19 15:20 LGIR 191520Z 00000KT 9999 FEW020 SCT030 18/13 Q1011 NOSIG
LGRP - Rhodes-Elev 5m
Απόσταση από meteothes.gr: ΝΑ 649km
Ενημερώθηκε: 19/11/2017 17:20
Ασθενής βροχή, κυρίως νεφελώδης
Ασθενής βροχή, κυρίως νεφελώδης
 Ανεμος από ΝΔ
Ανεμος: ΝΔ 7 km/h
Θερμοκρασία: 18°C
Σημ. Δρόσου: 14°C
Υγρασία: 78%
Βαρόμετρο: 1011 hPa
Συνθήκες: Ασθενής βροχή
Νέφωση: κυρίως νεφελώδης
Ορατότητα: 8 km
Λεπτομέρειες Νεφών: Διάσπαρτα Nέφη 366 m
Διάσπαρτα Nέφη 549 m
κυρίως νεφελώδης 762 m
2017/11/19 15:20 LGRP 191520Z 22004KT 8000 -RA FEW012 FEW018TCU BKN025 18/14 Q1011 NOSIG
 
LWOH - Ohrid/FYROM-Elev 761m
Απόσταση από meteothes.gr: ΔΒΔ 188km
Ενημερώθηκε: 19/11/2017 17:30
κυρίως νεφελώδης
κυρίως νεφελώδης
 Ανεμος από ΝΝΔ
Ανεμος: ΝΝΔ 2 km/h
Θερμοκρασία: 8°C
Σημ. Δρόσου: 6°C
Υγρασία: 87%
Βαρόμετρο: 1010 hPa
Νέφωση: κυρίως νεφελώδης
Ορατότητα: 10 km
Λεπτομέρειες Νεφών: Διάσπαρτα Nέφη 610 m
Μερικώς νεφελώδης 1067 m
κυρίως νεφελώδης 1219 m
2017/11/19 15:30 LWOH 191530Z 20001KT 9999 FEW020 SCT035 BKN040 08/06 Q1010
LBSF - Sofia/Bulgaria-Elev 595m
Απόσταση από meteothes.gr: Β 227km
Ενημερώθηκε: 19/11/2017 17:30
Ασθενής βροχή, Συννεφιά
Ασθενής βροχή, Συννεφιά
 Ανεμος από Δ
Ανεμος: Δ 11 km/h
Θερμοκρασία: 6°C
Αίσθηση Ψύχρας: 4°C
Σημ. Δρόσου: 5°C
Υγρασία: 93%
Βαρόμετρο: 1010 hPa
Συνθήκες: Ασθενής βροχή
Νέφωση: Συννεφιά
Ορατότητα: 10 km
Λεπτομέρειες Νεφών: Διάσπαρτα Nέφη 823 m
Συννεφιά 1128 m
2017/11/19 15:30 LBSF 191530Z 27006KT 9999 -RA FEW027 OVC037 06/05 Q1010 NOSIG

(*) Μερικές αναφορές παρουσιάζουν λιγότερα στοιχεία γιατί οι αρχικές είναι ελλιπείς ή έχουν λάθος μορφοποίηση!